Nearby METAR Reports

 

KPAO - Palo Alto, California, USA
Distance from KPAO: NNW 0nm, 0mi
Updated: Fri, 27-Jan-2023 8:47pm PST
NOT Current
Sky Clear
Sky Clear
 Wind from varies
Wind: varies 3 mph , 6 km/h
Temperature: 48°F , 9°C
Dew Point: 45°F , 7°C
Humidity: 87%
Barometer: 30.07 inHg , 1018.3 hPa
Clouds: Sky Clear
Visibility: 10 miles , 16 km
2023/01/28 04:47 KPAO 280447Z VRB03KT 10SM SKC 09/07 A3007 RMK LAST
KSQL - San Carlos Airpo, California, USA
Distance from KPAO: WNW 7nm, 8mi
Updated: Fri, 27-Jan-2023 11:15pm PST

 Wind from calm
Wind: Calm
Temperature: 46°F , 8°C
Dew Point: 45°F , 7°C
Humidity: 93%
Barometer: 30.06 inHg , 1017.9 hPa
Visibility: 10 miles , 16 km
2023/01/28 07:15 KSQL 280715Z AUTO 00000KT 10SM 08/07 A3006 RMK AO2
 
KSJC - San Jose, California, USA
Distance from KPAO: ESE 11nm, 13mi
Updated: Fri, 27-Jan-2023 10:53pm PST
Few Clouds
Few Clouds
 Wind from calm
Wind: Calm
Temperature: 46°F , 8°C
Dew Point: 43°F , 6°C
Humidity: 87%
Barometer: 30.05 inHg , 1017.6 hPa
Clouds: Few Clouds
Visibility: 10 miles , 16 km
Cloud details: Few Clouds 900 ft
2023/01/28 06:53 KSJC 280653Z 00000KT 10SM FEW009 08/06 A3005 RMK AO2 SLP175 T00830056
KHWD - Hayward, California, USA
Distance from KPAO: N 12nm, 14mi
Updated: Fri, 27-Jan-2023 10:54pm PST
Scattered
Scattered
 Wind from NE
Wind: NE 6 mph , 9 km/h
Temperature: 48°F , 9°C
Wind Chill: 45°F , 7°C
Dew Point: 45°F , 7°C
Humidity: 87%
Barometer: 30.05 inHg , 1017.6 hPa
Clouds: Scattered
Visibility: 10 miles , 16 km
Cloud details: Scattered 1000 ft
2023/01/28 06:54 KHWD 280654Z AUTO 04005KT 10SM SCT010 09/07 A3005 RMK AO2 SLP185 T00890072
 
KSFO - San Francisco, California, USA
Distance from KPAO: NW 16nm, 18mi
Updated: Fri, 27-Jan-2023 10:56pm PST
Few Clouds
Few Clouds
 Wind from NNW
Wind: NNW 8 mph , 13 km/h
Temperature: 52°F , 11°C
Dew Point: 48°F , 9°C
Humidity: 88%
Barometer: 30.05 inHg , 1017.6 hPa
Clouds: Few Clouds
Visibility: 10 miles , 16 km
Cloud details: Few Clouds 900 ft
2023/01/28 06:56 KSFO 280656Z 34007KT 10SM FEW009 11/09 A3005 RMK AO2 SLP175 T01110089
KRHV - San Jose/Reid, California, USA
Distance from KPAO: ESE 16nm, 18mi
Updated: Fri, 27-Jan-2023 9:55pm PST
NOT Current
Scattered
Scattered
 Wind from calm
Wind: Calm
Temperature: 48°F , 9°C
Dew Point: 43°F , 6°C
Humidity: 82%
Barometer: 30.06 inHg , 1017.9 hPa
Clouds: Scattered
Visibility: 10 miles , 16 km
Cloud details: Scattered 1000 ft
2023/01/28 05:55 KRHV 280555Z 00000KT 10SM SCT010 09/06 A3006 RMK LAST
 
KOAK - Oakland, California, USA
Distance from KPAO: NNW 16nm, 18mi
Updated: Fri, 27-Jan-2023 10:53pm PST
Clear
Clear
 Wind from ENE
Wind: ENE 3 mph , 6 km/h
Temperature: 45°F , 7°C
Dew Point: 43°F , 6°C
Humidity: 93%
Barometer: 30.06 inHg , 1017.9 hPa
Clouds: Clear
Visibility: 10 miles , 16 km
2023/01/28 06:53 KOAK 280653Z 06003KT 10SM CLR 07/06 A3006 RMK AO2 SLP179 T00720056
KHAF - Half Moon Bay, California, USA
Distance from KPAO: W 19nm, 22mi
Updated: Fri, 27-Jan-2023 11:15pm PST
Mist, Few clouds
Mist, Few clouds
 Wind from calm
Wind: Calm
Temperature: 48°F , 9°C
Dew Point: 48°F , 9°C
Humidity: 100%
Barometer: 30.05 inHg , 1017.6 hPa
Summary: Mist
Clouds: Few Clouds
Visibility: 5 miles , 8 km
Cloud details: Few Clouds 600 ft
2023/01/28 07:15 KHAF 280715Z AUTO 00000KT 5SM BR FEW006 09/09 A3005 RMK AO2
 
KLVK - Livermore, California, USA
Distance from KPAO: NE 20nm, 23mi
Updated: Fri, 27-Jan-2023 10:53pm PST
Clear
Clear
 Wind from calm
Wind: Calm
Temperature: 41°F , 5°C
Dew Point: 39°F , 4°C
Humidity: 93%
Barometer: 30.05 inHg , 1017.6 hPa
Clouds: Clear
Visibility: 10 miles , 16 km
2023/01/28 06:53 KLVK 280653Z AUTO 00000KT 10SM CLR 05/04 A3005 RMK AO2 SLP174 T00500039
KC83 - Byron, California, USA
Distance from KPAO: NE 32nm, 40mi
Updated: Thu, 26-Jan-2023 3:50pm PST
NOT Current
Clear
Clear
 Wind from E
Wind: E 5 mph , 7 km/h
Temperature: 61°F , 16°C
Dew Point: 46°F , 8°C
Humidity: 59%
Barometer: 30.39 inHg , 1029.1 hPa
Clouds: Clear
Visibility: 9 miles , 14 km
2023/01/26 23:50 KC83 262350Z AUTO 09004KT 9SM CLR 16/08 A3039 RMK AO2
 
KCCR - Concord, California, USA
Distance from KPAO: N 33nm, 37mi
Updated: Fri, 27-Jan-2023 10:53pm PST
Clear
Clear
 Wind from S
Wind: S 3 mph , 6 km/h
Temperature: 45°F , 7°C
Dew Point: 41°F , 5°C
Humidity: 87%
Barometer: 30.06 inHg , 1017.9 hPa
Clouds: Clear
Visibility: 10 miles , 16 km
2023/01/28 06:53 KCCR 280653Z AUTO 19003KT 10SM CLR 07/05 A3006 RMK AO2 SLP164 T00720050
KWVI - Watsonville, California, USA
Distance from KPAO: SSE 35nm, 40mi
Updated: Fri, 27-Jan-2023 11:03pm PST
Broken
Broken
 Wind from NNE
Wind: NNE 3 mph , 6 km/h
Temperature: 45°F , 7°C
Dew Point: 45°F , 7°C
Humidity: 100%
Barometer: 30.05 inHg , 1017.6 hPa
Clouds: Broken
Visibility: 10 miles , 16 km
Cloud details: Broken 1000 ft
2023/01/28 07:03 KWVI 280703Z AUTO 03003KT 10SM BKN010 07/07 A3005 RMK AO2 T00670067
 
KAPC - Napa, California, USA
Distance from KPAO: N 46nm, 53mi
Updated: Fri, 27-Jan-2023 12:54pm PST
NOT Current
Clear
Clear
 Wind from SW
Wind: SW 5 mph , 7 km/h
Temperature: 55°F , 13°C
Dew Point: 45°F , 7°C
Humidity: 67%
Barometer: 30.17 inHg , 1021.7 hPa
Clouds: Clear
Visibility: 10 miles , 16 km
2023/01/27 20:54 KAPC 272054Z 22004KT 10SM CLR 13/07 A3017 RMK AO2 SLP207 T01330067 58032
KDVO - Novato/Gnoss Fld, California, USA
Distance from KPAO: NNW 46nm, 53mi
Updated: Fri, 27-Jan-2023 10:55pm PST
Few Clouds
Few Clouds
 Wind from SSW
Wind: SSW 3 mph , 6 km/h
Temperature: 43°F , 6°C
Dew Point: 43°F , 6°C
Humidity: 100%
Barometer: 30.06 inHg , 1017.9 hPa
Clouds: Few Clouds
Visibility: 10 miles , 16 km
Cloud details: Few Clouds 300 ft
2023/01/28 06:55 KDVO 280655Z AUTO 20003KT 10SM FEW003 06/06 A3006 RMK AO2
 
KCVH - Hollister Muni, California, USA
Distance from KPAO: SE 48nm, 55mi
Updated: Fri, 27-Jan-2023 11:15pm PST
Clear
Clear
 Wind from calm
Wind: Calm
Temperature: 43°F , 6°C
Dew Point: 41°F , 5°C
Humidity: 93%
Barometer: 30.06 inHg , 1017.9 hPa
Clouds: Clear
Visibility: 8 miles , 13 km
2023/01/28 07:15 KCVH 280715Z AUTO 00000KT 8SM CLR 06/05 A3006 RMK A01
KSUU - Travis Afb/Fairf, California, USA
Distance from KPAO: ENE 49nm, 56mi
Updated: Fri, 27-Jan-2023 10:55pm PST
Clear
Clear
 Wind from NNW
Wind: NNW 3 mph , 6 km/h
Temperature: 43°F , 6°C
Dew Point: 39°F , 4°C
Humidity: 87%
Barometer: 30.03 inHg , 1016.9 hPa
Clouds: Clear
Visibility: 9 miles , 14 km
2023/01/28 06:55 KSUU 280655Z AUTO 33003KT 9SM CLR 06/04 A3003 RMK AO2 SLP176 T00620035 $
 
KSCK - Stockton, California, USA
Distance from KPAO: ENE 49nm, 56mi
Updated: Fri, 27-Jan-2023 10:55pm PST
Mist, Clear
Mist, Clear
 Wind from WNW
Wind: WNW 5 mph , 7 km/h
Temperature: 46°F , 8°C
Wind Chill: 44°F , 7°C
Dew Point: 43°F , 6°C
Humidity: 87%
Barometer: 30.03 inHg , 1016.9 hPa
Summary: Mist
Clouds: Clear
Visibility: 6 miles , 10 km
2023/01/28 06:55 KSCK 280655Z 29004KT 6SM BR CLR 08/06 A3003 RMK AO2 SLP167 T00780056 $
KO69 - Petaluma, California, USA
Distance from KPAO: W 53nm, 61mi
Updated: Fri, 27-Jan-2023 10:55pm PST
Overcast
Overcast
 Wind from calm
Wind: Calm
Temperature: 37°F , 3°C
Dew Point: 37°F , 3°C
Humidity: 100%
Barometer: 30.07 inHg , 1018.3 hPa
Clouds: Overcast
Visibility: 10 miles , 16 km
Cloud details: Overcast 400 ft
2023/01/28 06:55 KO69 280655Z AUTO 00000KT 10SM OVC004 03/03 A3007 RMK A01
 
KSNS - Salinas, California, USA
Distance from KPAO: SSE 54nm, 62mi
Updated: Fri, 27-Jan-2023 10:53pm PST
Overcast
Overcast
 Wind from W
Wind: W 6 mph , 9 km/h
Temperature: 52°F , 11°C
Dew Point: 46°F , 8°C
Humidity: 82%
Barometer: 30.04 inHg , 1017.3 hPa
Clouds: Overcast
Visibility: 10 miles , 16 km
Cloud details: Overcast 1400 ft
2023/01/28 06:53 KSNS 280653Z AUTO 27005KT 10SM OVC014 11/08 A3004 RMK AO2 SLP182 T01060078
KMRY - Monterey, California, USA
Distance from KPAO: SSE 54nm, 62mi
Updated: Fri, 27-Jan-2023 10:54pm PST
Overcast
Overcast
 Wind from WSW
Wind: WSW 7 mph , 11 km/h
Temperature: 52°F , 11°C
Dew Point: 48°F , 9°C
Humidity: 88%
Barometer: 30.05 inHg , 1017.6 hPa
Clouds: Overcast
Visibility: 10 miles , 16 km
Cloud details: Overcast 1200 ft
2023/01/28 06:54 KMRY 280654Z AUTO 24006KT 10SM OVC012 11/09 A3005 RMK AO2 SLP189 T01110089
 
KVCB - Vacaville, California, USA
Distance from KPAO: NE 55nm, 63mi
Updated: Fri, 27-Jan-2023 10:53pm PST
Clear
Clear
 Wind from N
Wind: N 5 mph , 7 km/h
Temperature: 45°F , 7°C
Wind Chill: 42°F , 6°C
Dew Point: 39°F , 4°C
Humidity: 81%
Barometer: 30.05 inHg , 1017.6 hPa
Clouds: Clear
Visibility: 8 miles , 13 km
2023/01/28 06:53 KVCB 280653Z AUTO 35004KT 8SM CLR 07/04 A3005 RMK AO2 SLP177 T00670044
KMOD - Modesto, California, USA
Distance from KPAO: E 56nm, 64mi
Updated: Fri, 27-Jan-2023 10:53pm PST
Clear
Clear
 Wind from WNW
Wind: WNW 8 mph , 13 km/h
Temperature: 46°F , 8°C
Wind Chill: 42°F , 6°C
Dew Point: 39°F , 4°C
Humidity: 76%
Barometer: 30.03 inHg , 1016.9 hPa
Clouds: Clear
Visibility: 8 miles , 13 km
2023/01/28 06:53 KMOD 280653Z AUTO 30007KT 8SM CLR 08/04 A3003 RMK AO2 SLP168 T00780044
 
KEDU - Davis, California, USA
Distance from KPAO: NE 66nm, 76mi
Updated: Fri, 27-Jan-2023 10:50pm PST
Clear
Clear
 Wind from calm
Wind: Calm
Temperature: 46°F , 8°C
Dew Point: 45°F , 7°C
Humidity: 93%
Barometer: 30.06 inHg , 1017.9 hPa
Clouds: Clear
Visibility: 10 miles , 16 km
2023/01/28 06:50 KEDU 280650Z AUTO 00000KT 10SM CLR 08/07 A3006 RMK AO1
KSAC - Sacramento, California, USA
Distance from KPAO: NE 70nm, 81mi
Updated: Fri, 27-Jan-2023 10:53pm PST
Clear
Clear
 Wind from NW
Wind: NW 6 mph , 9 km/h
Temperature: 46°F , 8°C
Wind Chill: 43°F , 6°C
Dew Point: 43°F , 6°C
Humidity: 87%
Barometer: 30.05 inHg , 1017.6 hPa
Clouds: Clear
Visibility: 8 miles , 13 km
2023/01/28 06:53 KSAC 280653Z AUTO 32005KT 8SM CLR 08/06 A3005 RMK AO2 SLP174 T00830061
 
KSTS - Santa Rosa, California, USA
Distance from KPAO: NW 71nm, 82mi
Updated: Fri, 27-Jan-2023 11:10pm PST
Fog, Overcast
Fog, Overcast
 Wind from calm
Wind: Calm
Temperature: 37°F , 3°C
Dew Point: 37°F , 3°C
Humidity: 100%
Barometer: 30.06 inHg , 1017.9 hPa
Summary: Fog
Clouds: Overcast
Visibility: 1/4 mile , 0.4 km
Cloud details: Overcast 200 ft
2023/01/28 07:10 KSTS 280710Z AUTO 00000KT 1/4SM FG VV002 03/03 A3006 RMK AO2 T00330028
KMHR - Mather Field, California, USA
Distance from KPAO: ENE 76nm, 88mi
Updated: Fri, 27-Jan-2023 10:55pm PST
Clear
Clear
 Wind from N
Wind: N 3 mph , 6 km/h
Temperature: 45°F , 7°C
Dew Point: 41°F , 5°C
Humidity: 87%
Barometer: 30.03 inHg , 1016.9 hPa
Clouds: Clear
Visibility: 8 miles , 13 km
2023/01/28 06:55 KMHR 280655Z AUTO 36003KT 8SM CLR 07/05 A3003 RMK A01
 
KSMF - Sacramento/Metro, California, USA
Distance from KPAO: NE 78nm, 90mi
Updated: Fri, 27-Jan-2023 10:53pm PST
Mist, Clear
Mist, Clear
 Wind from NW
Wind: NW 8 mph , 13 km/h
Temperature: 43°F , 6°C
Wind Chill: 38°F , 3°C
Dew Point: 39°F , 4°C
Humidity: 87%
Barometer: 30.05 inHg , 1017.6 hPa
Summary: Mist
Clouds: Clear
Visibility: 4 miles , 6 km
2023/01/28 06:53 KSMF 280653Z 32007KT 4SM BR CLR 06/04 A3005 RMK AO2 SLP173 T00610044
KMCC - Mcclellan Afb, California, USA
Distance from KPAO: NE 80nm, 92mi
Updated: Fri, 27-Jan-2023 10:55pm PST
Mist, Clear
Mist, Clear
 Wind from NW
Wind: NW 3 mph , 6 km/h
Temperature: 45°F , 7°C
Dew Point: 43°F , 6°C
Humidity: 93%
Barometer: 30.04 inHg , 1017.3 hPa
Summary: Mist
Clouds: Clear
Visibility: 5 miles , 8 km
2023/01/28 06:55 KMCC 280655Z AUTO 32003KT 5SM BR CLR 07/06 A3004 RMK AO2
 
KNKX - Miramar MCAS (Joe Foss Field) Airport, California, USA
Distance from KPAO: SE 368nm, 423mi
Updated: Fri, 27-Jan-2023 10:55pm PST
Clear
Clear
 Wind from E
Wind: E 6 mph , 9 km/h
Temperature: 43°F , 6°C
Wind Chill: 39°F , 4°C
Dew Point: 36°F , 2°C
Humidity: 76%
Barometer: 30.00 inHg , 1015.9 hPa
Clouds: Clear
Visibility: 10 miles , 16 km
2023/01/28 06:55 KNKX 280655Z 09005KT 10SM CLR 06/02 A3000 RMK AO2 SLP157 T00610017 $
KMYF - Montgomery-Gibbs Executive Airport, California, USA
Distance from KPAO: SE 371nm, 427mi
Updated: Fri, 27-Jan-2023 10:53pm PST
Clear
Clear
 Wind from calm
Wind: Calm
Temperature: 46°F , 8°C
Dew Point: 36°F , 2°C
Humidity: 66%
Barometer: 30.01 inHg , 1016.3 hPa
Clouds: Clear
Visibility: 10 miles , 16 km
2023/01/28 06:53 KMYF 280653Z AUTO 00000KT 10SM CLR 08/02 A3001 RMK AO2 SLP161 T00830022